createdAt,value
2023-02-17T00:01:25.240Z,97633.00
2023-02-17T00:03:52.989Z,97621.66
2023-02-17T00:06:21.891Z,97622.56
2023-02-17T00:08:49.151Z,97625.28
2023-02-17T00:11:16.446Z,97627.06
2023-02-17T00:13:43.361Z,97637.09
2023-02-17T00:16:13.549Z,97639.56
2023-02-17T00:18:40.321Z,97644.28
2023-02-17T00:21:21.765Z,97642.56
2023-02-17T00:23:49.539Z,97644.22
2023-02-17T00:26:17.323Z,97645.91
2023-02-17T00:28:44.761Z,97647.28
2023-02-17T00:31:16.011Z,97652.53
2023-02-17T00:33:42.668Z,97651.78
2023-02-17T00:36:17.865Z,97648.28
2023-02-17T00:38:45.135Z,97641.63
2023-02-17T00:41:11.691Z,97641.91
2023-02-17T00:43:38.300Z,97651.94
2023-02-17T00:46:05.675Z,97648.59
2023-02-17T00:48:32.541Z,97637.19
2023-02-17T00:50:59.169Z,97635.31
2023-02-17T00:53:26.709Z,97628.50
2023-02-17T00:55:53.309Z,97626.72
2023-02-17T00:58:19.984Z,97629.31
2023-02-17T01:00:46.809Z,97622.78
2023-02-17T01:03:13.738Z,97628.59
2023-02-17T01:05:45.265Z,97626.03
2023-02-17T01:08:15.524Z,97622.56
2023-02-17T01:10:43.851Z,97624.09
2023-02-17T01:13:11.516Z,97631.13
2023-02-17T01:15:39.957Z,97636.16
2023-02-17T01:18:06.649Z,97633.75
2023-02-17T01:20:38.646Z,97631.59
2023-02-17T01:23:07.387Z,97627.75
2023-02-17T01:25:42.250Z,97626.22
2023-02-17T01:28:21.195Z,97616.78
2023-02-17T01:30:48.941Z,97603.25
2023-02-17T01:33:15.619Z,97604.25
2023-02-17T01:35:42.542Z,97610.66
2023-02-17T01:38:09.196Z,97604.19
2023-02-17T01:40:35.865Z,97602.94
2023-02-17T01:43:02.451Z,97590.66
2023-02-17T01:45:36.436Z,97587.94
2023-02-17T01:48:09.311Z,97586.53
2023-02-17T01:50:43.030Z,97578.00
2023-02-17T01:53:13.318Z,97553.56
2023-02-17T01:55:41.807Z,97542.91
2023-02-17T01:58:11.256Z,97551.53
2023-02-17T02:00:38.437Z,97546.81
2023-02-17T02:03:10.471Z,97547.66
2023-02-17T02:05:39.072Z,97543.47
2023-02-17T02:08:05.891Z,97536.53
2023-02-17T02:10:33.460Z,97550.28
2023-02-17T02:13:00.115Z,97553.84
2023-02-17T02:15:33.611Z,97544.19
2023-02-17T02:18:19.235Z,97544.28
2023-02-17T02:21:06.954Z,97541.47
2023-02-17T02:23:45.673Z,97553.38
2023-02-17T02:26:15.003Z,97542.84
2023-02-17T02:29:05.155Z,97542.09
2023-02-17T02:31:54.066Z,97537.50
2023-02-17T02:34:30.552Z,97533.09
2023-02-17T02:37:08.944Z,97526.25
2023-02-17T02:39:42.523Z,97521.84
2023-02-17T02:42:13.616Z,97522.22
2023-02-17T02:44:40.923Z,97518.91
2023-02-17T02:47:47.031Z,97509.84
2023-02-17T02:50:23.227Z,97520.44
2023-02-17T02:52:58.978Z,97517.63
2023-02-17T02:55:51.888Z,97516.78
2023-02-17T02:58:22.341Z,97517.63
2023-02-17T03:01:00.140Z,97516.72
2023-02-17T03:03:43.805Z,97519.09
2023-02-17T03:06:38.621Z,97511.88
2023-02-17T03:09:10.957Z,97517.47
2023-02-17T03:11:37.890Z,97507.22
2023-02-17T03:14:08.108Z,97510.34
2023-02-17T03:16:36.864Z,97510.84
2023-02-17T03:19:03.866Z,97509.91
2023-02-17T03:21:39.299Z,97514.09
2023-02-17T03:24:06.975Z,97506.78
2023-02-17T03:26:33.588Z,97513.16
2023-02-17T03:29:00.634Z,97511.97
2023-02-17T03:31:30.613Z,97508.25
2023-02-17T03:33:58.221Z,97518.84
2023-02-17T03:36:24.974Z,97523.50
2023-02-17T03:38:51.838Z,97531.88
2023-02-17T03:41:18.552Z,97529.25
2023-02-17T03:43:45.155Z,97530.31
2023-02-17T03:46:13.186Z,97528.22
2023-02-17T03:48:40.236Z,97534.44
2023-02-17T03:51:14.876Z,97537.41
2023-02-17T03:53:42.236Z,97530.78
2023-02-17T03:56:09.224Z,97537.44
2023-02-17T03:58:35.908Z,97531.56
2023-02-17T04:01:02.563Z,97523.81
2023-02-17T04:03:29.528Z,97530.47
2023-02-17T04:05:56.226Z,97537.59
2023-02-17T04:08:23.436Z,97529.88
2023-02-17T04:10:58.103Z,97528.44
2023-02-17T04:13:25.471Z,97517.59
2023-02-17T04:15:52.748Z,97515.19
2023-02-17T04:18:20.167Z,97520.63
2023-02-17T04:20:50.023Z,97525.09
2023-02-17T04:23:18.105Z,97529.09
2023-02-17T04:25:45.074Z,97518.59
2023-02-17T04:28:12.498Z,97521.63
2023-02-17T04:30:39.440Z,97516.91
2023-02-17T04:33:06.334Z,97521.06
2023-02-17T04:35:32.961Z,97514.97
2023-02-17T04:37:59.614Z,97514.78
2023-02-17T04:40:26.185Z,97524.00
2023-02-17T04:42:52.795Z,97522.00
2023-02-17T04:45:19.739Z,97520.97
2023-02-17T04:47:46.327Z,97523.09
2023-02-17T04:50:13.006Z,97520.47
2023-02-17T04:52:39.701Z,97520.72
2023-02-17T04:55:06.900Z,97528.69
2023-02-17T04:57:34.014Z,97532.66
2023-02-17T05:00:00.737Z,97529.81
2023-02-17T05:02:28.405Z,97524.78
2023-02-17T05:04:55.037Z,97528.09
2023-02-17T05:07:22.306Z,97525.53
2023-02-17T05:09:48.908Z,97519.13
2023-02-17T05:12:15.468Z,97515.41
2023-02-17T05:14:42.077Z,97504.09
2023-02-17T05:17:08.729Z,97509.38
2023-02-17T05:19:35.605Z,97520.13
2023-02-17T05:22:02.280Z,97522.22
2023-02-17T05:24:28.901Z,97508.41
2023-02-17T05:26:55.475Z,97510.28
2023-02-17T05:29:23.329Z,97523.25
2023-02-17T05:31:50.048Z,97519.69
2023-02-17T05:34:16.693Z,97514.16
2023-02-17T05:36:43.440Z,97515.78
2023-02-17T05:39:10.089Z,97504.44
2023-02-17T05:41:36.687Z,97509.84
2023-02-17T05:44:03.499Z,97501.34
2023-02-17T05:46:30.120Z,97511.28
2023-02-17T05:48:56.706Z,97508.50
2023-02-17T05:51:23.315Z,97507.13
2023-02-17T05:53:49.941Z,97508.56
2023-02-17T05:56:16.528Z,97520.63
2023-02-17T05:58:43.175Z,97522.25
2023-02-17T06:01:10.829Z,97519.00
2023-02-17T06:03:37.759Z,97527.06
2023-02-17T06:06:05.514Z,97525.53
2023-02-17T06:08:32.546Z,97523.09
2023-02-17T06:10:59.230Z,97524.44
2023-02-17T06:13:26.127Z,97528.94
2023-02-17T06:15:53.108Z,97508.34
2023-02-17T06:18:19.903Z,97517.56
2023-02-17T06:20:46.490Z,97528.25
2023-02-17T06:23:13.078Z,97536.59
2023-02-17T06:25:39.789Z,97527.00
2023-02-17T06:28:06.398Z,97531.94
2023-02-17T06:30:33.011Z,97536.41
2023-02-17T06:32:59.795Z,97538.03
2023-02-17T06:35:26.686Z,97541.16
2023-02-17T06:37:53.367Z,97545.22
2023-02-17T06:40:20.301Z,97546.59
2023-02-17T06:42:46.894Z,97543.34
2023-02-17T06:45:13.584Z,97544.28
2023-02-17T06:47:40.215Z,97555.34
2023-02-17T06:50:07.847Z,97544.28
2023-02-17T06:52:34.497Z,97550.56
2023-02-17T06:55:01.097Z,97543.34
2023-02-17T06:57:27.696Z,97541.44
2023-02-17T06:59:54.340Z,97531.56
2023-02-17T07:02:21.113Z,97530.22
2023-02-17T07:04:47.894Z,97532.69
2023-02-17T07:07:14.484Z,97541.84
2023-02-17T07:09:41.366Z,97548.91
2023-02-17T07:12:08.122Z,97546.28
2023-02-17T07:14:35.609Z,97558.81
2023-02-17T07:17:02.549Z,97558.22
2023-02-17T07:19:29.396Z,97553.56
2023-02-17T07:21:55.993Z,97564.31
2023-02-17T07:24:22.597Z,97546.19
2023-02-17T07:26:49.521Z,97551.44
2023-02-17T07:29:16.117Z,97543.63
2023-02-17T07:31:42.836Z,97544.56
2023-02-17T07:34:09.484Z,97539.88
2023-02-17T07:36:36.150Z,97547.13
2023-02-17T07:39:03.847Z,97551.03
2023-02-17T07:41:32.801Z,97554.84
2023-02-17T07:44:08.249Z,97553.38
2023-02-17T07:46:35.428Z,97555.06
2023-02-17T07:49:02.113Z,97553.91
2023-02-17T07:51:28.744Z,97556.84
2023-02-17T07:53:55.337Z,97572.50
2023-02-17T07:56:23.003Z,97557.69
2023-02-17T07:58:50.602Z,97561.28
2023-02-17T08:01:22.242Z,97566.88
2023-02-17T08:03:49.708Z,97563.34
2023-02-17T08:06:19.751Z,97564.00
2023-02-17T08:09:05.615Z,97561.63
2023-02-17T08:11:50.552Z,97564.09
2023-02-17T08:14:18.188Z,97567.22
2023-02-17T08:16:44.864Z,97582.84
2023-02-17T08:19:11.600Z,97583.97
2023-02-17T08:21:39.252Z,97583.44
2023-02-17T08:24:06.169Z,97573.84
2023-02-17T08:26:32.924Z,97573.69
2023-02-17T08:28:59.565Z,97558.72
2023-02-17T08:31:32.134Z,97551.97
2023-02-17T08:34:01.139Z,97556.34
2023-02-17T08:36:28.917Z,97556.63
2023-02-17T08:38:56.554Z,97551.16
2023-02-17T08:41:29.078Z,97558.88
2023-02-17T08:43:56.918Z,97555.81
2023-02-17T08:46:23.865Z,97562.72
2023-02-17T08:48:50.721Z,97559.16
2023-02-17T08:51:23.552Z,97573.06
2023-02-17T08:53:51.557Z,97580.44
2023-02-17T08:56:18.228Z,97568.03
2023-02-17T08:58:44.826Z,97578.66
2023-02-17T09:01:12.289Z,97579.88
2023-02-17T09:03:39.933Z,97574.16
2023-02-17T09:06:08.077Z,97574.16
2023-02-17T09:08:34.962Z,97590.72
2023-02-17T09:11:01.593Z,97582.47
2023-02-17T09:13:28.273Z,97582.41
2023-02-17T09:15:54.980Z,97575.38
2023-02-17T09:18:22.488Z,97583.06
2023-02-17T09:20:49.768Z,97585.91
2023-02-17T09:23:16.906Z,97582.38
2023-02-17T09:25:44.496Z,97590.69
2023-02-17T09:28:11.613Z,97587.75
2023-02-17T09:30:38.333Z,97595.09
2023-02-17T09:33:05.476Z,97598.50
2023-02-17T09:35:33.091Z,97593.31
2023-02-17T09:38:00.710Z,97605.25
2023-02-17T09:40:45.825Z,97591.44
2023-02-17T09:43:15.545Z,97590.38
2023-02-17T09:45:47.810Z,97603.03
2023-02-17T09:48:20.285Z,97598.09
2023-02-17T09:50:51.090Z,97616.00
2023-02-17T09:53:22.299Z,97612.38
2023-02-17T09:55:53.406Z,97627.06
2023-02-17T09:58:32.188Z,97626.50
2023-02-17T10:01:02.549Z,97620.59
2023-02-17T10:03:41.652Z,97624.69
2023-02-17T10:06:18.977Z,97617.53
2023-02-17T10:08:58.782Z,97611.72
2023-02-17T10:11:33.794Z,97623.31
2023-02-17T10:14:10.072Z,97626.59
2023-02-17T10:16:41.628Z,97633.34
2023-02-17T10:19:19.005Z,97623.31
2023-02-17T10:22:02.876Z,97624.94
2023-02-17T10:24:29.634Z,97630.38
2023-02-17T10:27:08.031Z,97626.59
2023-02-17T10:29:43.611Z,97634.09
2023-02-17T10:32:27.520Z,97628.63
2023-02-17T10:34:54.315Z,97614.41
2023-02-17T10:37:40.422Z,97610.25
2023-02-17T10:40:21.075Z,97603.69
2023-02-17T10:42:50.031Z,97605.38
2023-02-17T10:45:36.350Z,97609.91
2023-02-17T10:48:31.929Z,97602.00
2023-02-17T10:51:00.567Z,97614.25
2023-02-17T10:53:40.735Z,97616.69
2023-02-17T10:56:26.252Z,97608.59
2023-02-17T10:59:06.461Z,97609.44
2023-02-17T11:01:34.447Z,97609.31
2023-02-17T11:04:04.273Z,97601.34
2023-02-17T11:06:31.925Z,97600.63
2023-02-17T11:09:01.962Z,97600.84
2023-02-17T11:11:34.887Z,97587.19
2023-02-17T11:14:20.990Z,97600.81
2023-02-17T11:16:54.642Z,97596.44
2023-02-17T11:19:35.530Z,97585.81
2023-02-17T11:22:05.170Z,97595.66
2023-02-17T11:24:34.356Z,97602.78
2023-02-17T11:27:08.780Z,97595.06
2023-02-17T11:29:35.474Z,97592.56
2023-02-17T11:32:12.432Z,97599.66
2023-02-17T11:34:41.711Z,97600.16
2023-02-17T11:37:14.373Z,97597.66
2023-02-17T11:39:43.107Z,97596.41
2023-02-17T11:42:37.114Z,97585.09
2023-02-17T11:45:18.463Z,97591.22
2023-02-17T11:47:48.026Z,97600.66
2023-02-17T11:50:40.378Z,97586.47
2023-02-17T11:53:14.080Z,97583.88
2023-02-17T11:56:06.649Z,97590.16
2023-02-17T11:58:48.477Z,97582.06
2023-02-17T12:01:36.584Z,97582.94
2023-02-17T12:04:31.793Z,97577.22
2023-02-17T12:07:15.624Z,97567.34
2023-02-17T12:10:01.817Z,97562.06
2023-02-17T12:12:59.819Z,97555.03
2023-02-17T12:15:29.243Z,97557.03
2023-02-17T12:18:23.921Z,97556.94
2023-02-17T12:21:02.714Z,97551.72
2023-02-17T12:23:59.627Z,97542.41
2023-02-17T12:26:49.848Z,97553.16
2023-02-17T12:29:48.907Z,97554.84
2023-02-17T12:32:59.782Z,97557.72
2023-02-17T12:35:39.429Z,97549.50
2023-02-17T12:38:16.793Z,97536.88
2023-02-17T12:41:05.937Z,97532.28
2023-02-17T12:43:42.491Z,97526.72
2023-02-17T12:46:15.916Z,97527.66
2023-02-17T12:48:59.021Z,97527.97
2023-02-17T12:51:38.954Z,97515.09
2023-02-17T12:54:20.193Z,97515.59
2023-02-17T12:56:58.458Z,97514.97
2023-02-17T12:59:46.046Z,97507.38
2023-02-17T13:02:16.086Z,97491.72
2023-02-17T13:04:45.100Z,97494.34
2023-02-17T13:07:24.128Z,97490.75
2023-02-17T13:09:53.548Z,97492.03
2023-02-17T13:12:23.464Z,97490.38
2023-02-17T13:15:05.914Z,97489.41
2023-02-17T13:17:32.439Z,97495.41
2023-02-17T13:20:24.857Z,97502.59
2023-02-17T13:23:02.670Z,97484.00
2023-02-17T13:25:32.109Z,97495.19
2023-02-17T13:28:03.151Z,97497.72
2023-02-17T13:30:42.287Z,97500.56
2023-02-17T13:33:20.991Z,97494.72
2023-02-17T13:35:48.450Z,97506.16
2023-02-17T13:38:29.935Z,97506.47
2023-02-17T13:41:04.416Z,97510.97
2023-02-17T13:43:31.722Z,97508.16
2023-02-17T13:46:01.327Z,97494.94
2023-02-17T13:48:33.953Z,97496.63
2023-02-17T13:51:02.941Z,97494.09
2023-02-17T13:53:37.214Z,97484.78
2023-02-17T13:56:12.431Z,97478.38
2023-02-17T13:58:42.306Z,97470.22
2023-02-17T14:01:16.495Z,97490.91
2023-02-17T14:03:47.988Z,97482.69
2023-02-17T14:06:32.422Z,97482.69
2023-02-17T14:08:59.397Z,97473.81
2023-02-17T14:11:28.591Z,97485.69
2023-02-17T14:13:57.312Z,97474.91
2023-02-17T14:16:26.870Z,97487.66
2023-02-17T14:19:02.588Z,97488.09
2023-02-17T14:21:29.495Z,97480.69
2023-02-17T14:23:58.125Z,97487.41
2023-02-17T14:26:32.641Z,97497.78
2023-02-17T14:29:02.144Z,97480.91
2023-02-17T14:31:29.455Z,97480.56
2023-02-17T14:34:01.822Z,97500.56
2023-02-17T14:36:33.630Z,97495.34
2023-02-17T14:39:02.052Z,97494.00
2023-02-17T14:41:29.190Z,97494.63
2023-02-17T14:43:56.333Z,97486.28
2023-02-17T14:46:23.045Z,97492.47
2023-02-17T14:48:52.224Z,97479.03
2023-02-17T14:51:22.368Z,97478.19
2023-02-17T14:53:50.182Z,97474.81
2023-02-17T14:56:25.024Z,97481.16
2023-02-17T14:58:53.162Z,97474.94
2023-02-17T15:01:21.803Z,97481.63
2023-02-17T15:03:48.538Z,97481.84
2023-02-17T15:06:24.424Z,97478.66
2023-02-17T15:08:52.973Z,97500.63
2023-02-17T15:11:26.437Z,97499.16
2023-02-17T15:13:53.158Z,97504.91
2023-02-17T15:16:19.743Z,97509.34
2023-02-17T15:18:46.683Z,97512.41
2023-02-17T15:21:25.268Z,97512.00
2023-02-17T15:23:52.287Z,97503.75
2023-02-17T15:26:19.207Z,97512.19
2023-02-17T15:28:45.897Z,97512.38
2023-02-17T15:31:15.743Z,97518.31
2023-02-17T15:33:44.058Z,97522.13
2023-02-17T15:36:16.474Z,97517.06
2023-02-17T15:38:43.286Z,97512.63
2023-02-17T15:41:29.818Z,97521.78
2023-02-17T15:43:58.523Z,97520.09
2023-02-17T15:46:32.849Z,97520.88
2023-02-17T15:49:00.165Z,97523.19
2023-02-17T15:51:26.799Z,97531.97
2023-02-17T15:53:53.438Z,97527.03
2023-02-17T15:56:26.322Z,97522.25
2023-02-17T15:58:53.697Z,97526.78
2023-02-17T16:01:32.132Z,97527.69
2023-02-17T16:03:59.681Z,97534.44
2023-02-17T16:06:28.157Z,97534.94
2023-02-17T16:08:55.743Z,97544.31
2023-02-17T16:11:23.464Z,97541.69
2023-02-17T16:13:52.054Z,97541.78
2023-02-17T16:16:25.499Z,97526.41
2023-02-17T16:18:52.824Z,97534.91
2023-02-17T16:21:19.535Z,97536.72
2023-02-17T16:23:46.882Z,97528.78
2023-02-17T16:26:35.470Z,97522.94
2023-02-17T16:29:10.214Z,97530.06
2023-02-17T16:31:36.880Z,97539.34
2023-02-17T16:34:03.542Z,97527.34
2023-02-17T16:36:34.204Z,97526.03
2023-02-17T16:39:11.307Z,97517.78
2023-02-17T16:41:38.520Z,97515.63
2023-02-17T16:44:07.390Z,97529.88
2023-02-17T16:46:36.905Z,97527.38
2023-02-17T16:49:16.406Z,97533.78
2023-02-17T16:51:42.992Z,97527.22
2023-02-17T16:54:10.739Z,97528.47
2023-02-17T16:56:43.180Z,97535.16
2023-02-17T16:59:17.578Z,97533.63
2023-02-17T17:01:45.465Z,97543.44
2023-02-17T17:04:12.424Z,97543.44
2023-02-17T17:06:43.363Z,97540.97
2023-02-17T17:09:16.666Z,97533.75
2023-02-17T17:11:43.620Z,97547.13
2023-02-17T17:14:10.561Z,97537.44
2023-02-17T17:16:40.202Z,97537.81
2023-02-17T17:19:07.068Z,97542.97
2023-02-17T17:21:34.168Z,97544.25
2023-02-17T17:24:00.823Z,97550.06
2023-02-17T17:26:33.598Z,97553.53
2023-02-17T17:29:00.955Z,97559.19
2023-02-17T17:31:29.835Z,97569.53
2023-02-17T17:33:57.885Z,97575.88
2023-02-17T17:36:34.449Z,97571.63
2023-02-17T17:39:03.038Z,97579.75
2023-02-17T17:41:29.957Z,97588.91
2023-02-17T17:43:57.935Z,97584.47
2023-02-17T17:46:28.553Z,97605.56
2023-02-17T17:48:58.782Z,97605.47
2023-02-17T17:51:26.310Z,97610.47
2023-02-17T17:53:52.952Z,97606.53
2023-02-17T17:56:26.724Z,97617.06
2023-02-17T17:58:54.749Z,97624.63
2023-02-17T18:01:22.123Z,97628.38
2023-02-17T18:03:49.651Z,97620.38
2023-02-17T18:06:40.604Z,97624.91
2023-02-17T18:09:15.018Z,97634.03
2023-02-17T18:11:44.980Z,97641.09
2023-02-17T18:14:14.215Z,97643.28
2023-02-17T18:16:43.266Z,97643.84
2023-02-17T18:19:10.738Z,97649.69
2023-02-17T18:21:39.341Z,97648.66
2023-02-17T18:24:06.581Z,97654.03
2023-02-17T18:26:33.770Z,97657.50
2023-02-17T18:29:00.809Z,97662.88
2023-02-17T18:31:29.510Z,97670.59
2023-02-17T18:33:56.471Z,97677.38
2023-02-17T18:36:25.851Z,97680.88
2023-02-17T18:38:52.664Z,97675.41
2023-02-17T18:41:21.670Z,97659.66
2023-02-17T18:43:48.447Z,97671.75
2023-02-17T18:46:15.165Z,97673.22
2023-02-17T18:48:41.960Z,97676.44
2023-02-17T18:51:14.556Z,97689.91
2023-02-17T18:53:41.713Z,97688.41
2023-02-17T18:56:14.304Z,97690.94
2023-02-17T18:58:41.437Z,97697.16
2023-02-17T19:01:15.478Z,97699.16
2023-02-17T19:03:42.109Z,97698.47
2023-02-17T19:06:15.881Z,97704.69
2023-02-17T19:08:44.153Z,97703.47
2023-02-17T19:11:10.719Z,97700.75
2023-02-17T19:13:37.670Z,97705.28
2023-02-17T19:16:10.639Z,97705.44
2023-02-17T19:18:39.421Z,97701.34
2023-02-17T19:21:07.319Z,97704.13
2023-02-17T19:23:34.548Z,97717.88
2023-02-17T19:26:02.786Z,97707.13
2023-02-17T19:28:29.676Z,97717.63
2023-02-17T19:30:57.357Z,97716.78
2023-02-17T19:33:25.248Z,97726.84
2023-02-17T19:35:52.630Z,97722.66
2023-02-17T19:38:19.518Z,97721.91
2023-02-17T19:40:46.753Z,97726.44
2023-02-17T19:43:13.375Z,97730.56
2023-02-17T19:45:40.035Z,97728.88
2023-02-17T19:48:06.958Z,97736.34
2023-02-17T19:50:33.725Z,97726.63
2023-02-17T19:53:00.443Z,97729.50
2023-02-17T19:55:27.033Z,97721.34
2023-02-17T19:57:53.637Z,97722.34
2023-02-17T20:00:20.265Z,97726.13
2023-02-17T20:02:47.012Z,97729.72
2023-02-17T20:05:13.673Z,97737.91
2023-02-17T20:07:40.310Z,97742.44
2023-02-17T20:10:11.605Z,97747.22
2023-02-17T20:12:38.505Z,97745.84
2023-02-17T20:15:05.487Z,97737.44
2023-02-17T20:17:32.171Z,97743.84
2023-02-17T20:19:59.585Z,97743.66
2023-02-17T20:22:26.468Z,97754.19
2023-02-17T20:24:53.185Z,97743.28
2023-02-17T20:27:19.777Z,97752.50
2023-02-17T20:29:46.374Z,97754.28
2023-02-17T20:32:13.119Z,97755.03
2023-02-17T20:34:40.283Z,97757.13
2023-02-17T20:37:08.077Z,97761.66
2023-02-17T20:39:36.228Z,97756.91
2023-02-17T20:42:02.959Z,97762.44
2023-02-17T20:44:29.592Z,97773.09
2023-02-17T20:46:57.192Z,97767.63
2023-02-17T20:49:25.289Z,97772.16
2023-02-17T20:51:52.166Z,97770.25
2023-02-17T20:54:18.829Z,97774.28
2023-02-17T20:56:47.409Z,97776.47
2023-02-17T20:59:14.962Z,97776.66
2023-02-17T21:01:43.167Z,97768.66
2023-02-17T21:04:10.163Z,97771.38
2023-02-17T21:06:43.019Z,97772.31
2023-02-17T21:09:14.944Z,97773.25
2023-02-17T21:11:42.046Z,97772.75
2023-02-17T21:14:09.283Z,97781.41
2023-02-17T21:16:36.159Z,97774.53
2023-02-17T21:19:03.889Z,97777.34
2023-02-17T21:21:31.559Z,97774.81
2023-02-17T21:23:58.899Z,97776.50
2023-02-17T21:26:26.677Z,97766.97
2023-02-17T21:28:54.873Z,97772.41
2023-02-17T21:31:21.627Z,97778.63
2023-02-17T21:33:48.386Z,97780.31
2023-02-17T21:36:17.510Z,97770.72
2023-02-17T21:38:44.754Z,97779.56
2023-02-17T21:41:22.618Z,97765.44
2023-02-17T21:44:07.572Z,97776.19
2023-02-17T21:46:34.866Z,97773.59
2023-02-17T21:49:02.039Z,97779.38
2023-02-17T21:51:29.619Z,97783.91
2023-02-17T21:53:56.294Z,97783.91
2023-02-17T21:56:24.590Z,97781.19
2023-02-17T21:58:53.536Z,97783.06
2023-02-17T22:01:22.466Z,97790.25
2023-02-17T22:03:49.131Z,97778.97
2023-02-17T22:06:30.260Z,97782.53
2023-02-17T22:08:57.770Z,97783.28
2023-02-17T22:11:32.812Z,97781.59
2023-02-17T22:14:02.243Z,97781.59
2023-02-17T22:16:30.890Z,97772.84
2023-02-17T22:18:57.544Z,97776.50
2023-02-17T22:21:24.304Z,97767.75
2023-02-17T22:23:51.144Z,97768.00
2023-02-17T22:26:21.281Z,97767.91
2023-02-17T22:28:47.970Z,97777.59
2023-02-17T22:31:16.842Z,97773.13
2023-02-17T22:33:43.671Z,97780.31
2023-02-17T22:36:16.049Z,97774.13
2023-02-17T22:38:42.846Z,97771.06
2023-02-17T22:41:11.892Z,97780.31
2023-02-17T22:43:40.712Z,97777.88
2023-02-17T22:46:10.291Z,97773.25
2023-02-17T22:48:38.827Z,97785.44
2023-02-17T22:51:07.581Z,97785.84
2023-02-17T22:53:35.855Z,97784.41
2023-02-17T22:56:03.892Z,97778.97
2023-02-17T22:58:30.679Z,97778.00
2023-02-17T23:01:05.122Z,97783.22
2023-02-17T23:03:31.847Z,97783.56
2023-02-17T23:06:12.799Z,97781.84
2023-02-17T23:08:39.584Z,97780.25
2023-02-17T23:11:08.766Z,97778.09
2023-02-17T23:13:36.268Z,97774.19
2023-02-17T23:16:04.407Z,97774.19
2023-02-17T23:18:33.987Z,97772.41
2023-02-17T23:21:07.673Z,97772.00
2023-02-17T23:23:34.491Z,97772.84
2023-02-17T23:26:01.400Z,97781.25
2023-02-17T23:28:28.542Z,97780.06
2023-02-17T23:30:55.263Z,97776.66
2023-02-17T23:33:23.297Z,97781.94
2023-02-17T23:35:49.921Z,97776.81
2023-02-17T23:38:18.495Z,97775.09
2023-02-17T23:40:49.174Z,97771.47
2023-02-17T23:43:16.079Z,97767.28
2023-02-17T23:45:43.603Z,97770.88
2023-02-17T23:48:10.522Z,97767.38
2023-02-17T23:50:37.100Z,97776.31
2023-02-17T23:53:03.819Z,97767.47
2023-02-17T23:55:30.390Z,97765.50
2023-02-17T23:57:57.060Z,97760.34
